Time;durP1;ratioP1;P1;durP2;ratioP2;P2;SDS_P1;SDS_P2;PMS_P1;PMS_P2;Temp;Humidity;BMP_temperature;BMP_pressure;BME280_temperature;BME280_humidity;BME280_pressure;Samples;Min_cycle;Max_cycle;Signal;HPM_P1;HPM_P2
2021/03/22 00:00:39;;;;;;;10.52;7.72;;;;;;;;;;4989178;28;20404;-74
2021/03/22 00:03:05;;;;;;;13.77;11.55;;;;;;;;;;4989467;28;20026;-74
2021/03/22 00:05:30;;;;;;;15.05;7.30;;;;;;;;;;4986555;28;20026;-74
2021/03/22 00:07:56;;;;;;;6.35;4.55;;;;;;;;;;4987731;28;20052;-74
2021/03/22 00:10:23;;;;;;;7.40;4.88;;;;;;;;;;4988104;28;20026;-74
2021/03/22 00:12:48;;;;;;;9.73;7.05;;;;;;;;;;4989483;28;20052;-74
2021/03/22 00:15:14;;;;;;;16.65;10.88;;;;;;;;;;4989440;28;20026;-74
2021/03/22 00:17:39;;;;;;;21.20;17.55;;;;;;;;;;4988728;28;20081;-74
2021/03/22 00:20:05;;;;;;;19.60;16.95;;;;;;;;;;4987955;28;20069;-74
2021/03/22 00:22:30;;;;;;;17.02;11.23;;;;;;;;;;4989589;28;20125;-74
2021/03/22 00:24:56;;;;;;;19.40;12.90;;;;;;;;;;4988935;28;20092;-74
2021/03/22 00:27:21;;;;;;;17.77;12.18;;;;;;;;;;4989098;28;20109;-75
2021/03/22 00:29:46;;;;;;;19.38;15.98;;;;;;;;;;4989068;28;20033;-74
2021/03/22 00:32:12;;;;;;;24.20;19.55;;;;;;;;;;4989129;28;20030;-74
2021/03/22 00:34:37;;;;;;;14.95;11.35;;;;;;;;;;4988902;28;20114;-74
2021/03/22 00:37:02;;;;;;;9.48;8.13;;;;;;;;;;4988764;28;20141;-74
2021/03/22 00:39:27;;;;;;;16.02;11.68;;;;;;;;;;4986828;28;20026;-74
2021/03/22 00:41:53;;;;;;;9.30;5.45;;;;;;;;;;4988837;28;20026;-74
2021/03/22 00:44:18;;;;;;;8.73;6.68;;;;;;;;;;4988422;28;20693;-73
2021/03/22 00:46:44;;;;;;;10.68;6.70;;;;;;;;;;4988842;28;20034;-74
2021/03/22 00:49:09;;;;;;;12.00;9.05;;;;;;;;;;4988694;28;20474;-74
2021/03/22 00:51:34;;;;;;;22.95;14.73;;;;;;;;;;4988910;28;20092;-74
2021/03/22 00:53:59;;;;;;;10.35;7.68;;;;;;;;;;4983684;28;20736;-74
2021/03/22 00:56:25;;;;;;;8.85;6.47;;;;;;;;;;4988701;28;20034;-74
2021/03/22 00:58:50;;;;;;;9.95;4.78;;;;;;;;;;4991430;28;20085;-74
2021/03/22 01:01:15;;;;;;;8.60;5.70;;;;;;;;;;4992548;28;20892;-74
2021/03/22 01:03:41;;;;;;;7.57;6.85;;;;;;;;;;4972024;28;20034;-74
2021/03/22 01:06:07;;;;;;;5.93;5.13;;;;;;;;;;4992142;28;20033;-73
2021/03/22 01:08:33;;;;;;;5.05;3.63;;;;;;;;;;4992175;28;20136;-73
2021/03/22 01:11:00;;;;;;;15.35;8.32;;;;;;;;;;4989610;28;20057;-75
2021/03/22 01:13:27;;;;;;;22.98;9.38;;;;;;;;;;4992143;28;20385;-74
2021/03/22 01:15:52;;;;;;;14.23;9.45;;;;;;;;;;4992152;28;20405;-74
2021/03/22 01:18:21;;;;;;;14.30;9.00;;;;;;;;;;4992155;28;20076;-74
2021/03/22 01:20:48;;;;;;;17.05;7.22;;;;;;;;;;4989155;28;20034;-74
2021/03/22 01:23:14;;;;;;;10.27;6.65;;;;;;;;;;4991435;28;20386;-73
2021/03/22 01:25:39;;;;;;;14.07;9.07;;;;;;;;;;4991011;28;20034;-74
2021/03/22 01:28:06;;;;;;;9.57;7.15;;;;;;;;;;4992019;28;20034;-74
2021/03/22 01:30:37;;;;;;;11.75;8.60;;;;;;;;;;4988307;28;20476;-74
2021/03/22 01:33:05;;;;;;;15.55;8.30;;;;;;;;;;4985270;28;20410;-74
2021/03/22 01:35:30;;;;;;;7.70;5.10;;;;;;;;;;4987294;28;20244;-73
2021/03/22 01:37:55;;;;;;;5.97;3.85;;;;;;;;;;4991837;28;20023;-74
2021/03/22 01:40:24;;;;;;;8.48;5.10;;;;;;;;;;4991305;28;20139;-74
2021/03/22 01:42:49;;;;;;;4.78;3.67;;;;;;;;;;4991493;28;20038;-74
2021/03/22 01:45:14;;;;;;;9.52;3.85;;;;;;;;;;4991596;28;20065;-73
2021/03/22 01:47:40;;;;;;;7.25;4.00;;;;;;;;;;4992037;28;20185;-74
2021/03/22 01:50:08;;;;;;;7.50;4.97;;;;;;;;;;4991172;28;20204;-74
2021/03/22 01:52:35;;;;;;;8.55;6.60;;;;;;;;;;4991692;28;20025;-73
2021/03/22 01:55:00;;;;;;;18.55;8.57;;;;;;;;;;4991408;28;20030;-74
2021/03/22 01:57:26;;;;;;;12.82;6.97;;;;;;;;;;4991495;28;20034;-74
2021/03/22 01:59:52;;;;;;;7.13;3.85;;;;;;;;;;4991104;28;20022;-73
2021/03/22 02:02:17;;;;;;;14.40;7.00;;;;;;;;;;4991056;28;20046;-73
2021/03/22 02:04:43;;;;;;;7.53;5.05;;;;;;;;;;4989727;28;20058;-74
2021/03/22 02:07:08;;;;;;;9.63;5.45;;;;;;;;;;4988430;28;20101;-74
2021/03/22 02:09:33;;;;;;;5.97;4.70;;;;;;;;;;4985495;28;20085;-73
2021/03/22 02:11:59;;;;;;;8.10;3.55;;;;;;;;;;4985957;28;20034;-74
2021/03/22 02:14:24;;;;;;;5.00;3.38;;;;;;;;;;4989684;28;20109;-74
2021/03/22 02:16:49;;;;;;;3.75;1.98;;;;;;;;;;4990874;28;20046;-73
2021/03/22 02:19:41;;;;;;;8.35;3.40;;;;;;;;;;4990889;28;20105;-74
2021/03/22 02:22:25;;;;;;;5.32;2.67;;;;;;;;;;4987765;28;20049;-73
2021/03/22 02:25:09;;;;;;;8.63;2.85;;;;;;;;;;4990525;28;20479;-74
2021/03/22 02:27:34;;;;;;;4.25;3.15;;;;;;;;;;4990651;28;20034;-74
2021/03/22 02:30:10;;;;;;;6.32;4.00;;;;;;;;;;4990614;28;20049;-74
2021/03/22 02:32:51;;;;;;;13.73;2.72;;;;;;;;;;4990695;28;20361;-73
2021/03/22 02:35:16;;;;;;;6.28;3.28;;;;;;;;;;4990663;28;20386;-74
2021/03/22 02:38:01;;;;;;;2.65;1.92;;;;;;;;;;4989536;28;20040;-74
2021/03/22 02:40:32;;;;;;;3.42;2.30;;;;;;;;;;4989484;28;20136;-74
2021/03/22 02:42:58;;;;;;;4.38;2.22;;;;;;;;;;4989040;28;20022;-75
2021/03/22 02:45:30;;;;;;;2.65;1.73;;;;;;;;;;4990194;28;20045;-74
2021/03/22 02:47:55;;;;;;;4.88;2.28;;;;;;;;;;4990361;28;20123;-74
2021/03/22 02:50:23;;;;;;;3.92;2.13;;;;;;;;;;4990181;28;20373;-74
2021/03/22 02:52:51;;;;;;;4.28;3.17;;;;;;;;;;4988921;28;20046;-74
2021/03/22 02:55:25;;;;;;;9.60;2.95;;;;;;;;;;4990059;28;20042;-74
2021/03/22 02:57:53;;;;;;;6.78;2.50;;;;;;;;;;4990141;28;20082;-74
2021/03/22 03:00:18;;;;;;;5.97;3.20;;;;;;;;;;4990024;28;20037;-74
2021/03/22 03:02:45;;;;;;;6.30;2.50;;;;;;;;;;4986224;28;20050;-74
2021/03/22 03:05:15;;;;;;;2.25;1.38;;;;;;;;;;4985308;28;20026;-74
2021/03/22 03:07:41;;;;;;;3.45;1.40;;;;;;;;;;4990214;28;20091;-73
2021/03/22 03:10:07;;;;;;;8.23;2.00;;;;;;;;;;4989819;28;20026;-73
2021/03/22 03:12:32;;;;;;;2.92;1.42;;;;;;;;;;4988149;28;20732;-74
2021/03/22 03:14:57;;;;;;;6.38;2.67;;;;;;;;;;4989595;28;20070;-74
2021/03/22 03:17:23;;;;;;;10.45;3.65;;;;;;;;;;4989291;28;20117;-73
2021/03/22 03:19:52;;;;;;;7.20;4.13;;;;;;;;;;4989536;28;20030;-74
2021/03/22 03:22:18;;;;;;;7.63;2.85;;;;;;;;;;4989713;28;20073;-74
2021/03/22 03:24:43;;;;;;;5.88;3.35;;;;;;;;;;4985063;28;20430;-74
2021/03/22 03:27:10;;;;;;;5.60;2.40;;;;;;;;;;4984351;28;20033;-74
2021/03/22 03:29:36;;;;;;;16.27;2.30;;;;;;;;;;4989526;28;20109;-73
2021/03/22 03:32:01;;;;;;;5.32;3.55;;;;;;;;;;4989581;28;20129;-74
2021/03/22 03:34:27;;;;;;;3.75;1.75;;;;;;;;;;4989205;28;20763;-74
2021/03/22 03:36:52;;;;;;;3.50;1.38;;;;;;;;;;4988047;28;20034;-74
2021/03/22 03:39:18;;;;;;;2.65;0.85;;;;;;;;;;4988518;28;20022;-73
2021/03/22 03:41:43;;;;;;;4.05;1.90;;;;;;;;;;4983610;28;20037;-74
2021/03/22 03:44:09;;;;;;;2.67;1.65;;;;;;;;;;4988766;28;20030;-74
2021/03/22 03:46:35;;;;;;;1.58;0.80;;;;;;;;;;4989017;28;20042;-74
2021/03/22 03:49:00;;;;;;;2.47;1.65;;;;;;;;;;4988281;28;20041;-73
2021/03/22 03:51:25;;;;;;;1.55;1.35;;;;;;;;;;4988827;28;20034;-74
2021/03/22 03:53:51;;;;;;;7.25;1.75;;;;;;;;;;4988904;28;20034;-73
2021/03/22 03:56:16;;;;;;;1.35;0.73;;;;;;;;;;4988799;28;20030;-74
2021/03/22 03:58:41;;;;;;;2.65;1.90;;;;;;;;;;4988588;28;20027;-74
2021/03/22 04:01:07;;;;;;;1.98;1.55;;;;;;;;;;4985749;28;20413;-74
2021/03/22 04:03:36;;;;;;;6.32;1.50;;;;;;;;;;4988695;28;20037;-74
2021/03/22 04:06:02;;;;;;;1.85;1.02;;;;;;;;;;4984465;28;20086;-74
2021/03/22 04:08:28;;;;;;;1.02;0.88;;;;;;;;;;4988509;28;20022;-74
2021/03/22 04:10:55;;;;;;;6.05;1.13;;;;;;;;;;4988582;28;20465;-74
2021/03/22 04:13:21;;;;;;;2.10;1.20;;;;;;;;;;4989137;28;20038;-74
2021/03/22 04:15:46;;;;;;;4.57;2.20;;;;;;;;;;4988516;28;20030;-74
2021/03/22 04:18:12;;;;;;;4.22;2.05;;;;;;;;;;4988628;28;20064;-74
2021/03/22 04:20:37;;;;;;;4.30;1.38;;;;;;;;;;4988495;28;20049;-73
2021/03/22 04:23:02;;;;;;;2.38;1.73;;;;;;;;;;4988276;28;20026;-74
2021/03/22 04:25:28;;;;;;;4.32;3.65;;;;;;;;;;4988222;28;20125;-74
2021/03/22 04:27:53;;;;;;;10.07;3.92;;;;;;;;;;4988877;28;20038;-74
2021/03/22 04:30:19;;;;;;;6.63;3.25;;;;;;;;;;4986993;28;20034;-65
2021/03/22 04:32:44;;;;;;;4.30;3.15;;;;;;;;;;4987912;28;20026;-66
2021/03/22 04:35:09;;;;;;;8.10;2.40;;;;;;;;;;4986727;28;20041;-66
2021/03/22 04:37:35;;;;;;;6.72;4.25;;;;;;;;;;4988167;28;20365;-66
2021/03/22 04:40:00;;;;;;;4.88;3.90;;;;;;;;;;4984129;28;20070;-66
2021/03/22 04:42:25;;;;;;;3.33;2.63;;;;;;;;;;4987506;28;20457;-65
2021/03/22 04:44:51;;;;;;;7.78;6.38;;;;;;;;;;4985393;28;20089;-66
2021/03/22 04:47:16;;;;;;;7.55;5.15;;;;;;;;;;4985300;28;20487;-66
2021/03/22 04:49:41;;;;;;;4.00;2.78;;;;;;;;;;4988015;28;20338;-66
2021/03/22 04:52:07;;;;;;;4.88;3.15;;;;;;;;;;4988295;28;20036;-66
2021/03/22 04:54:32;;;;;;;8.43;4.63;;;;;;;;;;4969203;28;20760;-66
2021/03/22 04:57:09;;;;;;;8.23;3.50;;;;;;;;;;4987876;28;20031;-66
2021/03/22 04:59:34;;;;;;;10.85;6.25;;;;;;;;;;4986653;28;20585;-66
2021/03/22 05:01:59;;;;;;;9.30;3.90;;;;;;;;;;4987670;28;20137;-66
2021/03/22 05:04:24;;;;;;;5.97;3.80;;;;;;;;;;4986443;28;20096;-66
2021/03/22 05:06:50;;;;;;;7.22;3.00;;;;;;;;;;4987934;28;20045;-65
2021/03/22 05:09:15;;;;;;;5.57;4.35;;;;;;;;;;4984590;28;20038;-66
2021/03/22 05:11:40;;;;;;;4.82;3.25;;;;;;;;;;4988105;28;20469;-66
2021/03/22 05:14:05;;;;;;;5.80;3.78;;;;;;;;;;4982326;28;20030;-66
2021/03/22 05:16:31;;;;;;;14.75;7.00;;;;;;;;;;4987701;28;20540;-66
2021/03/22 05:18:56;;;;;;;9.23;4.78;;;;;;;;;;4987537;28;20081;-66
2021/03/22 05:21:21;;;;;;;5.43;3.63;;;;;;;;;;4981189;28;20377;-66
2021/03/22 05:23:47;;;;;;;5.38;3.25;;;;;;;;;;4987632;28;20026;-66
2021/03/22 05:26:12;;;;;;;9.18;3.58;;;;;;;;;;4980813;28;20454;-66
2021/03/22 05:28:41;;;;;;;9.43;3.60;;;;;;;;;;4987603;28;20026;-66
2021/03/22 05:31:06;;;;;;;5.10;3.13;;;;;;;;;;4984952;28;20064;-66
2021/03/22 05:33:32;;;;;;;8.23;3.63;;;;;;;;;;4987373;28;20441;-66
2021/03/22 05:36:00;;;;;;;7.50;3.45;;;;;;;;;;4987458;28;20034;-66
2021/03/22 05:38:25;;;;;;;7.28;3.33;;;;;;;;;;4985782;28;20122;-66
2021/03/22 05:40:50;;;;;;;8.63;1.70;;;;;;;;;;4987667;28;20114;-66
2021/03/22 05:43:34;;;;;;;6.15;2.50;;;;;;;;;;4983061;28;20520;-66
2021/03/22 05:46:02;;;;;;;5.97;3.90;;;;;;;;;;4988926;28;20026;-66
2021/03/22 05:48:37;;;;;;;3.42;2.25;;;;;;;;;;4990587;28;20034;-66
2021/03/22 05:51:02;;;;;;;10.43;5.88;;;;;;;;;;4991073;28;20026;-66
2021/03/22 05:53:28;;;;;;;8.48;5.03;;;;;;;;;;4990642;28;20078;-66
2021/03/22 05:55:54;;;;;;;19.77;5.55;;;;;;;;;;4989706;28;20037;-66
2021/03/22 05:58:42;;;;;;;6.28;4.13;;;;;;;;;;4983108;28;20029;-66
2021/03/22 06:01:39;;;;;;;6.68;2.95;;;;;;;;;;4987590;28;20046;-66
2021/03/22 06:04:21;;;;;;;10.15;7.53;;;;;;;;;;4955006;28;20054;-66
2021/03/22 06:06:47;;;;;;;5.20;3.47;;;;;;;;;;4989622;28;20030;-66
2021/03/22 06:09:19;;;;;;;3.47;2.05;;;;;;;;;;4990494;28;20034;-64
2021/03/22 06:11:44;;;;;;;3.75;2.92;;;;;;;;;;4989960;28;20396;-64
2021/03/22 06:14:32;;;;;;;9.73;4.55;;;;;;;;;;4990501;28;20038;-64
2021/03/22 06:17:19;;;;;;;15.10;9.13;;;;;;;;;;4990494;28;20121;-64
2021/03/22 06:20:05;;;;;;;10.43;2.90;;;;;;;;;;4990215;28;20049;-64
2021/03/22 06:22:31;;;;;;;5.43;4.93;;;;;;;;;;4990643;28;20104;-67
2021/03/22 06:25:12;;;;;;;8.98;5.95;;;;;;;;;;4990132;28;20050;-64
2021/03/22 06:27:37;;;;;;;6.88;4.43;;;;;;;;;;4987706;28;20038;-64
2021/03/22 06:30:03;;;;;;;22.10;7.68;;;;;;;;;;4990232;28;20093;-64
2021/03/22 06:32:39;;;;;;;4.95;2.38;;;;;;;;;;4987644;28;20129;-64
2021/03/22 06:35:07;;;;;;;7.78;4.72;;;;;;;;;;4990054;28;20421;-64
2021/03/22 06:37:34;;;;;;;9.55;6.05;;;;;;;;;;4988712;28;20035;-64
2021/03/22 06:40:11;;;;;;;5.07;4.03;;;;;;;;;;4989803;28;20053;-64
2021/03/22 06:42:36;;;;;;;15.48;5.75;;;;;;;;;;4989891;28;20018;-64
2021/03/22 06:45:03;;;;;;;7.68;4.50;;;;;;;;;;4989847;28;20125;-64
2021/03/22 06:47:32;;;;;;;6.97;4.30;;;;;;;;;;4985954;28;20138;-64
2021/03/22 06:50:15;;;;;;;6.63;5.00;;;;;;;;;;4969918;28;20045;-63
2021/03/22 06:52:42;;;;;;;9.85;5.22;;;;;;;;;;4970672;28;20058;-64
2021/03/22 06:55:26;;;;;;;4.53;3.53;;;;;;;;;;4982598;28;20169;-64
2021/03/22 06:57:51;;;;;;;6.57;4.95;;;;;;;;;;4988412;28;20037;-64
2021/03/22 07:00:24;;;;;;;5.10;3.92;;;;;;;;;;4985695;28;20027;-63
2021/03/22 07:02:49;;;;;;;7.72;3.95;;;;;;;;;;4989876;28;20046;-64
2021/03/22 07:05:18;;;;;;;11.95;4.60;;;;;;;;;;4987974;28;20041;-64
2021/03/22 07:08:13;;;;;;;3.60;2.72;;;;;;;;;;4989436;28;20535;-64
2021/03/22 07:10:42;;;;;;;5.75;3.58;;;;;;;;;;4976618;28;20497;-64
2021/03/22 07:13:14;;;;;;;5.20;3.00;;;;;;;;;;4989742;28;20362;-64
2021/03/22 07:15:39;;;;;;;6.15;3.78;;;;;;;;;;4989518;28;20181;-63
2021/03/22 07:18:14;;;;;;;10.65;4.35;;;;;;;;;;4987026;28;20121;-63
2021/03/22 07:20:40;;;;;;;4.97;3.85;;;;;;;;;;4989511;28;20085;-63
2021/03/22 07:23:23;;;;;;;8.90;3.67;;;;;;;;;;4989237;28;20030;-63
2021/03/22 07:25:51;;;;;;;5.18;3.40;;;;;;;;;;4985491;28;20032;-63
2021/03/22 07:28:31;;;;;;;11.77;2.58;;;;;;;;;;4987859;28;20030;-63
2021/03/22 07:31:02;;;;;;;3.58;2.15;;;;;;;;;;4989126;28;20040;-63
2021/03/22 07:33:37;;;;;;;14.02;4.35;;;;;;;;;;4988895;28;20041;-64
2021/03/22 07:36:17;;;;;;;5.30;3.85;;;;;;;;;;4989088;28;20034;-64
2021/03/22 07:39:07;;;;;;;3.78;2.67;;;;;;;;;;4980268;28;20121;-63
2021/03/22 07:41:54;;;;;;;5.88;3.22;;;;;;;;;;4988162;28;20026;-63
2021/03/22 07:44:38;;;;;;;7.35;3.63;;;;;;;;;;4988521;28;20022;-64
2021/03/22 07:47:04;;;;;;;5.20;2.65;;;;;;;;;;4989028;28;20097;-64
2021/03/22 07:49:32;;;;;;;5.85;3.10;;;;;;;;;;4988474;28;20038;-64
2021/03/22 07:52:00;;;;;;;5.63;3.88;;;;;;;;;;4987304;28;20022;-63
2021/03/22 07:54:44;;;;;;;6.80;4.05;;;;;;;;;;4988602;28;20034;-64
2021/03/22 07:57:21;;;;;;;10.93;3.03;;;;;;;;;;4987024;28;20046;-63
2021/03/22 08:00:03;;;;;;;6.75;3.95;;;;;;;;;;4986601;28;20018;-62
2021/03/22 08:02:28;;;;;;;;;;;;;;;;;;4987761;28;20532;-62
2021/03/22 08:05:29;;;;;;;6.05;4.47;;;;;;;;;;4988793;28;19914;-63
2021/03/22 08:07:56;;;;;;;6.83;4.77;;;;;;;;;;4920653;29;20085;-62
2021/03/22 08:10:40;;;;;;;11.40;2.33;;;;;;;;;;4975031;28;20434;-63
2021/03/22 08:13:24;;;;;;;7.18;4.47;;;;;;;;;;4985721;28;20026;-63
2021/03/22 08:15:58;;;;;;;6.30;3.65;;;;;;;;;;4988593;28;20033;-63
2021/03/22 08:18:27;;;;;;;5.60;3.55;;;;;;;;;;4988419;28;20061;-63
2021/03/22 08:20:58;;;;;;;10.57;4.30;;;;;;;;;;4969769;28;20551;-63
2021/03/22 08:23:27;;;;;;;11.40;3.80;;;;;;;;;;4983305;28;20054;-64
2021/03/22 08:25:54;;;;;;;5.57;3.85;;;;;;;;;;4981823;28;20030;-63
2021/03/22 08:28:22;;;;;;;9.35;4.85;;;;;;;;;;4988278;28;20042;-63
2021/03/22 08:31:03;;;;;;;4.18;3.45;;;;;;;;;;4986609;28;20035;-63
2021/03/22 08:33:37;;;;;;;5.30;3.55;;;;;;;;;;4988033;28;20026;-60
2021/03/22 08:36:18;;;;;;;3.15;2.85;;;;;;;;;;4988167;28;20402;-61
2021/03/22 08:38:47;;;;;;;4.38;2.90;;;;;;;;;;4986851;28;20038;-61
2021/03/22 08:41:33;;;;;;;3.95;2.63;;;;;;;;;;4987271;28;20505;-61
2021/03/22 08:44:07;;;;;;;4.28;2.38;;;;;;;;;;4985029;28;20042;-61
2021/03/22 08:46:35;;;;;;;21.02;3.47;;;;;;;;;;4987079;28;20118;-60
2021/03/22 08:49:01;;;;;;;15.98;4.13;;;;;;;;;;4984684;28;20027;-63
2021/03/22 08:51:29;;;;;;;6.00;2.50;;;;;;;;;;4980982;28;20022;-63
2021/03/22 08:53:55;;;;;;;3.95;2.53;;;;;;;;;;4985243;28;20029;-63
2021/03/22 08:56:29;;;;;;;3.78;2.58;;;;;;;;;;4982257;28;20392;-63
2021/03/22 08:58:57;;;;;;;7.60;5.10;;;;;;;;;;4988458;28;20417;-67
2021/03/22 09:01:33;;;;;;;6.68;3.55;;;;;;;;;;4985026;28;20051;-66
2021/03/22 09:04:17;;;;;;;3.72;2.53;;;;;;;;;;4984968;28;20031;-66
2021/03/22 09:07:00;;;;;;;10.60;4.63;;;;;;;;;;4985123;28;20073;-67
2021/03/22 09:09:29;;;;;;;20.00;5.15;;;;;;;;;;4982815;28;20051;-66
2021/03/22 09:11:55;;;;;;;5.40;2.85;;;;;;;;;;4987925;28;20038;-67
2021/03/22 09:14:34;;;;;;;6.28;3.25;;;;;;;;;;4983192;28;20522;-67
2021/03/22 09:17:01;;;;;;;11.95;3.53;;;;;;;;;;4985132;28;20027;-67
2021/03/22 09:19:26;;;;;;;8.82;3.08;;;;;;;;;;4990072;28;20022;-67
2021/03/22 09:21:53;;;;;;;4.88;3.38;;;;;;;;;;4988884;28;20037;-65
2021/03/22 09:24:36;;;;;;;4.28;2.10;;;;;;;;;;4983956;28;20032;-65
2021/03/22 09:27:03;;;;;;;6.47;2.58;;;;;;;;;;4991640;28;20049;-65
2021/03/22 09:29:31;;;;;;;3.78;2.22;;;;;;;;;;4987605;28;20030;-63
2021/03/22 09:31:56;;;;;;;6.38;3.25;;;;;;;;;;4979828;28;20033;-63
2021/03/22 09:34:22;;;;;;;5.68;3.22;;;;;;;;;;4990122;28;20035;-63
2021/03/22 09:36:48;;;;;;;4.47;1.73;;;;;;;;;;4985334;28;20062;-64
2021/03/22 09:39:14;;;;;;;5.65;4.30;;;;;;;;;;4986507;28;20049;-65
2021/03/22 09:41:58;;;;;;;6.78;2.50;;;;;;;;;;4985230;28;20026;-65
2021/03/22 09:44:25;;;;;;;5.25;2.85;;;;;;;;;;4986447;28;20385;-65
2021/03/22 09:47:19;;;;;;;13.75;2.50;;;;;;;;;;4991172;28;20461;-65
2021/03/22 09:50:06;;;;;;;11.25;2.88;;;;;;;;;;4978338;28;20105;-67
2021/03/22 09:52:33;;;;;;;4.45;1.90;;;;;;;;;;4991005;28;20030;-67
2021/03/22 09:54:59;;;;;;;12.15;2.05;;;;;;;;;;4988341;28;20113;-67
2021/03/22 09:57:43;;;;;;;16.50;7.45;;;;;;;;;;4987264;28;20038;-67
2021/03/22 10:00:27;;;;;;;6.55;3.80;;;;;;;;;;4990810;28;20026;-64
2021/03/22 10:02:56;;;;;;;4.03;2.63;;;;;;;;;;4988351;28;20488;-75
2021/03/22 10:05:41;;;;;;;4.30;2.33;;;;;;;;;;4987661;28;20030;-74
2021/03/22 10:08:12;;;;;;;26.67;4.93;;;;;;;;;;4982493;28;20034;-72
2021/03/22 10:10:49;;;;;;;4.53;2.53;;;;;;;;;;4987191;28;20030;-72
2021/03/22 10:13:35;;;;;;;10.80;3.53;;;;;;;;;;4954956;28;20054;-74
2021/03/22 10:16:19;;;;;;;5.05;2.28;;;;;;;;;;4977120;28;20386;-73
2021/03/22 10:18:56;;;;;;;9.25;3.65;;;;;;;;;;4981430;28;20037;-74
2021/03/22 10:21:21;;;;;;;16.33;4.90;;;;;;;;;;4976735;28;20026;-74
2021/03/22 10:23:53;;;;;;;9.55;2.88;;;;;;;;;;4980474;28;20034;-73
2021/03/22 10:26:38;;;;;;;13.93;4.95;;;;;;;;;;4976548;28;20031;-73
2021/03/22 10:29:10;;;;;;;6.50;2.60;;;;;;;;;;4975844;28;20038;-74
2021/03/22 10:31:35;;;;;;;4.35;2.90;;;;;;;;;;4977326;28;20026;-74
2021/03/22 10:34:02;;;;;;;32.72;7.15;;;;;;;;;;4978783;28;20121;-74
2021/03/22 10:36:35;;;;;;;2.30;1.48;;;;;;;;;;4979670;28;21152;-74
2021/03/22 10:39:02;;;;;;;8.88;2.30;;;;;;;;;;4976392;28;20093;-74
2021/03/22 10:41:27;;;;;;;13.40;3.25;;;;;;;;;;4985055;28;20018;-75
2021/03/22 10:43:57;;;;;;;3.13;2.05;;;;;;;;;;4979943;28;20575;-74
2021/03/22 10:46:24;;;;;;;2.80;1.80;;;;;;;;;;4980599;28;20022;-75
2021/03/22 10:48:58;;;;;;;6.18;3.03;;;;;;;;;;4986749;28;20499;-75
2021/03/22 10:51:34;;;;;;;4.43;1.70;;;;;;;;;;4985386;28;20030;-75
2021/03/22 10:54:00;;;;;;;9.63;3.40;;;;;;;;;;4982063;28;20814;-76
2021/03/22 10:56:38;;;;;;;4.15;2.80;;;;;;;;;;4983251;28;20022;-76
2021/03/22 10:59:06;;;;;;;7.55;2.30;;;;;;;;;;4982146;28;20394;-76
2021/03/22 11:01:32;;;;;;;4.68;2.67;;;;;;;;;;4983806;28;20057;-75
2021/03/22 11:04:02;;;;;;;5.10;2.28;;;;;;;;;;4984061;28;20742;-76
2021/03/22 11:06:33;;;;;;;5.78;2.25;;;;;;;;;;4981310;28;20037;-75
2021/03/22 11:08:59;;;;;;;3.88;1.83;;;;;;;;;;4980989;28;20033;-73
2021/03/22 11:11:27;;;;;;;4.97;2.75;;;;;;;;;;4980594;28;20029;-73
2021/03/22 11:13:55;;;;;;;10.57;4.15;;;;;;;;;;4983794;28;20068;-74
2021/03/22 11:16:25;;;;;;;7.50;2.17;;;;;;;;;;4980073;28;20486;-73
2021/03/22 11:18:51;;;;;;;5.75;2.72;;;;;;;;;;4973160;28;20027;-73
2021/03/22 11:21:20;;;;;;;3.65;1.83;;;;;;;;;;4979731;28;20037;-73
2021/03/22 11:23:45;;;;;;;5.15;1.13;;;;;;;;;;4989043;28;20022;-74
2021/03/22 11:26:13;;;;;;;2.47;1.00;;;;;;;;;;4984502;28;20539;-73
2021/03/22 11:28:38;;;;;;;4.07;2.33;;;;;;;;;;4983875;28;20046;-74
2021/03/22 11:31:24;;;;;;;13.73;2.42;;;;;;;;;;4986771;28;20061;-73
2021/03/22 11:34:02;;;;;;;10.70;5.05;;;;;;;;;;4984515;28;20042;-74
2021/03/22 11:36:35;;;;;;;9.50;4.05;;;;;;;;;;4989394;28;20430;-74
2021/03/22 11:39:09;;;;;;;13.48;4.43;;;;;;;;;;4980444;28;20026;-75
2021/03/22 11:41:40;;;;;;;8.07;4.38;;;;;;;;;;4985236;28;20026;-73
2021/03/22 11:44:15;;;;;;;14.70;5.05;;;;;;;;;;4987131;28;20481;-74
2021/03/22 11:46:40;;;;;;;4.88;3.10;;;;;;;;;;4977081;28;20046;-74
2021/03/22 11:49:26;;;;;;;16.60;8.70;;;;;;;;;;4984976;28;20041;-73
2021/03/22 11:51:51;;;;;;;8.18;2.28;;;;;;;;;;4985902;28;20030;-74
2021/03/22 11:54:17;;;;;;;7.10;2.20;;;;;;;;;;4988940;28;20026;-74
2021/03/22 11:56:55;;;;;;;8.43;2.65;;;;;;;;;;4987444;28;20038;-71
2021/03/22 11:59:20;;;;;;;5.30;3.83;;;;;;;;;;4977831;28;20038;-72
2021/03/22 12:02:18;;;;;;;6.05;1.77;;;;;;;;;;4973164;28;20050;-74
2021/03/22 12:04:51;;;;;;;10.23;2.72;;;;;;;;;;4938704;28;20044;-72
2021/03/22 12:07:31;;;;;;;6.68;2.22;;;;;;;;;;4979029;28;20750;-72
2021/03/22 12:09:56;;;;;;;10.77;2.03;;;;;;;;;;4956638;28;20068;-74
2021/03/22 12:12:22;;;;;;;6.15;2.03;;;;;;;;;;4982335;28;20153;-71
2021/03/22 12:14:47;;;;;;;12.73;8.88;;;;;;;;;;4976265;28;20827;-71
2021/03/22 12:17:16;;;;;;;4.57;1.85;;;;;;;;;;4983580;28;20034;-73
2021/03/22 12:19:42;;;;;;;8.60;3.20;;;;;;;;;;4983273;28;20027;-72
2021/03/22 12:22:13;;;;;;;6.15;2.17;;;;;;;;;;4978526;28;20480;-72
2021/03/22 12:24:38;;;;;;;2.60;1.77;;;;;;;;;;4984534;28;20029;-72
2021/03/22 12:27:08;;;;;;;3.78;2.35;;;;;;;;;;4961857;28;20027;-72
2021/03/22 12:29:33;;;;;;;8.40;2.10;;;;;;;;;;4983954;28;20045;-73
2021/03/22 12:31:59;;;;;;;20.20;7.18;;;;;;;;;;4985105;28;20034;-69
2021/03/22 12:34:25;;;;;;;15.95;5.43;;;;;;;;;;4967411;28;20041;-72
2021/03/22 12:36:51;;;;;;;4.20;2.13;;;;;;;;;;4969430;28;20033;-72
2021/03/22 12:39:16;;;;;;;3.22;1.52;;;;;;;;;;4978578;28;20027;-73
2021/03/22 12:41:41;;;;;;;3.72;2.13;;;;;;;;;;4987167;28;20440;-72
2021/03/22 12:44:07;;;;;;;12.32;3.67;;;;;;;;;;4987359;28;20030;-72
2021/03/22 12:46:32;;;;;;;2.67;1.48;;;;;;;;;;4983947;28;20524;-73
2021/03/22 12:48:57;;;;;;;5.95;3.67;;;;;;;;;;4984157;28;20051;-73
2021/03/22 12:51:23;;;;;;;4.20;2.45;;;;;;;;;;4984372;28;20030;-73
2021/03/22 12:53:48;;;;;;;2.95;1.52;;;;;;;;;;4986580;28;20034;-74
2021/03/22 12:56:14;;;;;;;9.55;2.72;;;;;;;;;;4985125;28;20065;-73
2021/03/22 12:58:39;;;;;;;15.70;6.72;;;;;;;;;;4988880;28;20037;-73
2021/03/22 13:01:05;;;;;;;10.55;3.17;;;;;;;;;;4986339;28;20055;-72
2021/03/22 13:03:31;;;;;;;10.40;2.75;;;;;;;;;;4981790;28;20035;-73
2021/03/22 13:05:56;;;;;;;6.15;2.33;;;;;;;;;;4986990;28;20529;-73
2021/03/22 13:08:23;;;;;;;4.18;2.78;;;;;;;;;;4992312;28;20040;-73
2021/03/22 13:10:49;;;;;;;5.93;2.03;;;;;;;;;;4986623;28;20041;-71
2021/03/22 13:13:14;;;;;;;15.63;2.95;;;;;;;;;;4992243;28;20031;-66
2021/03/22 13:15:44;;;;;;;20.73;2.83;;;;;;;;;;4980474;28;20561;-72
2021/03/22 13:18:12;;;;;;;6.75;2.88;;;;;;;;;;4988758;28;20030;-72
2021/03/22 13:20:38;;;;;;;9.43;3.53;;;;;;;;;;4984503;28;20054;-72
2021/03/22 13:23:03;;;;;;;3.58;2.13;;;;;;;;;;4989511;28;20500;-70
2021/03/22 13:25:29;;;;;;;8.80;2.70;;;;;;;;;;4986583;28;20506;-72
2021/03/22 13:27:54;;;;;;;7.88;1.40;;;;;;;;;;4989865;28;20061;-69
2021/03/22 13:30:24;;;;;;;7.53;2.97;;;;;;;;;;4991688;28;20027;-72
2021/03/22 13:32:49;;;;;;;4.68;2.15;;;;;;;;;;4986970;28;20026;-73
2021/03/22 13:35:17;;;;;;;5.85;2.70;;;;;;;;;;4991096;28;20042;-74
2021/03/22 13:37:43;;;;;;;10.40;1.80;;;;;;;;;;4988922;28;20138;-73
2021/03/22 13:40:08;;;;;;;4.40;1.92;;;;;;;;;;4979538;28;20121;-73
2021/03/22 13:42:34;;;;;;;4.50;2.38;;;;;;;;;;4986326;28;20022;-73
2021/03/22 13:44:59;;;;;;;5.85;2.40;;;;;;;;;;4969517;28;20479;-72
2021/03/22 13:47:24;;;;;;;12.73;3.20;;;;;;;;;;4987139;28;20023;-72
2021/03/22 13:49:49;;;;;;;13.07;3.10;;;;;;;;;;4981103;28;20454;-73
2021/03/22 13:52:18;;;;;;;2.33;1.38;;;;;;;;;;4983573;28;20096;-73
2021/03/22 13:54:43;;;;;;;4.20;1.92;;;;;;;;;;4981030;28;20366;-74
2021/03/22 13:57:09;;;;;;;4.55;3.55;;;;;;;;;;4981120;28;20038;-73
2021/03/22 13:59:34;;;;;;;15.10;4.43;;;;;;;;;;4982449;28;20030;-73
2021/03/22 14:02:00;;;;;;;3.85;2.05;;;;;;;;;;4985459;28;20045;-72
2021/03/22 14:04:26;;;;;;;14.65;4.40;;;;;;;;;;4988018;28;20052;-74
2021/03/22 14:06:52;;;;;;;5.63;3.78;;;;;;;;;;4973491;28;20030;-74
2021/03/22 14:09:19;;;;;;;3.33;1.92;;;;;;;;;;4971665;28;20027;-72
2021/03/22 14:11:44;;;;;;;7.28;3.30;;;;;;;;;;4972886;28;20080;-73
2021/03/22 14:14:10;;;;;;;12.88;7.32;;;;;;;;;;4973174;28;20031;-71
2021/03/22 14:16:35;;;;;;;9.23;4.95;;;;;;;;;;4973245;28;20034;-72
2021/03/22 14:19:01;;;;;;;8.23;5.32;;;;;;;;;;4973088;28;20023;-73
2021/03/22 14:21:26;;;;;;;12.70;3.25;;;;;;;;;;4972702;28;20026;-72
2021/03/22 14:23:51;;;;;;;9.75;3.67;;;;;;;;;;4973175;28;20031;-72
2021/03/22 14:26:19;;;;;;;9.77;3.42;;;;;;;;;;4984653;28;20161;-68
2021/03/22 14:28:44;;;;;;;5.93;3.33;;;;;;;;;;4986093;28;20023;-71
2021/03/22 14:31:11;;;;;;;11.77;3.33;;;;;;;;;;4985194;28;20034;-71
2021/03/22 14:33:37;;;;;;;8.95;3.35;;;;;;;;;;4984722;28;20034;-72
2021/03/22 14:36:02;;;;;;;10.15;3.80;;;;;;;;;;4989838;28;20041;-72
2021/03/22 14:38:27;;;;;;;7.78;2.33;;;;;;;;;;4984371;28;20030;-71
2021/03/22 14:40:53;;;;;;;7.10;3.92;;;;;;;;;;4974693;28;20025;-71
2021/03/22 14:43:19;;;;;;;6.78;2.88;;;;;;;;;;4972727;28;20101;-71
2021/03/22 14:45:45;;;;;;;6.88;2.42;;;;;;;;;;4971268;28;20041;-71
2021/03/22 14:48:10;;;;;;;8.10;2.70;;;;;;;;;;4982132;28;20030;-71
2021/03/22 14:50:35;;;;;;;4.10;1.63;;;;;;;;;;4981697;28;20409;-71
2021/03/22 14:53:01;;;;;;;3.17;2.22;;;;;;;;;;4980455;28;20074;-70